Terminal Aerodrome Forecast
Issued by NWS Sterling, VA

Current Version | Previous Version | Text Only | Print | Product List | Glossary On
Versions: 1 2 3 4 5 6 7 8 9 10 11 12 13 14
648
FTUS41 KLWX 261731
TAFCHO
TAF
KCHO 261731Z 2618/2718 03007KT P6SM OVC020
     FM262100 13008KT 4SM -RA BR OVC015
     FM270300 15006KT 1SM -RA BR OVC008
     FM271400 21007KT 4SM BR BKN003
     FM271600 21007KT P6SM BKN060=

USA.gov is the U.S. government's official web portal to all federal, state and local government web resources and services.